Skip Navigation LinksHome page > Weather > Current weather Skip Navigation Links

Current Weather

Dallas Love Field, Dallas

For information only: do not use for flight planning or navigation.
Latest weather
Observation time Sunday, May 26, 2019 10:53 AM CDT
Local time Sunday, May 26, 2019 11:19 AM CDT
Flight conditions Visual Meteorological Conditions
Winds
Wind direction South (190°)
Wind speed 14 mph
Wind gusting to 23 mph
Visibility 10 mi.
Sky condition
Ceiling 3,500 ft. broken clouds
Cloud layer scattered clouds 2,600 ft.
Cloud layer broken clouds 3,500 ft.
Cloud layer broken clouds 30,000 ft.
Temperature 82°F
Dewpoint 67°F
Altimeter 30.07 in.Hg
Derived measurements
Relative humidity 60%
Heat index 85°F
Density altitude 2098 ft.
Sea-level pressure 30.05 in.Hg
Remarks
Automated weather observing station with precipitation discriminator.
METAR KDAL 261553Z 19012G20KT 10SM SCT026 BKN035 BKN300 28/19 A3007 RMK AO2 SLP175 T02780194

Settings

Location code

InnerDrive.Weather 4.0.6770.0 Release CLR 4.0.30319.42000
Copyright ©2018 Inner Drive Technology. All rights reserved. Portions Copyright ©1986-2018 David Braverman.

Find weather

Site navigation


Skip Navigation Links

Place info

Page info

PayPal - The safer, easier way to pay online!

Return home.

Copyright ©2019 Inner Drive Technology. Purveyors of fine, hand-crafted computer software. Page printed 2019-05-26T16:19:19 UTC.